Memorial Field Hot Springs US
ICAO: KHOT
IATA: HOT
Category: Medium
Scheduled Services: Yes

Elevation: 540 ft
TransAlt. 18000 ft.

Airport Communications:
MEMPHIS CNTR:127.825
ASOS:119.925
JONESBORO RDO:110
CTAF/UNICOM:123

KHOT Zoom In..

If you have problems with the map follow the link
https://www.worldairports.se/pages/airport.php?
ICAO=KHOT

Runways:

(A) RW 05 length 6595 ft width 150 ft
ILS 111.50 / hdg 50

(B) RW 13 length 4098 ft width 100 ft
---- / hdg 130

(C) RW 23 length 6595 ft width 150 ft
---- / hdg 230

(D) RW 31 length 4098 ft width 100 ft
---- / hdg 310

Location; KHOT
Day. 18 / Time. 21.33 Zulu
* Altimeter: 29.86
* Temperature: 12° c. 53.6°f.
* Wind from: 110° Speed 08 kn.
Dewpoint: 11° c.
Visibility: 8 Statute Miles.
Clouds: Overcast 1000 ft.

KHOT 182133Z AUTO 11008KT 8SM OVC010 12/11 A2986 RMK AO2 CIG 007V013 T01220111


Wind From 110°
Speed 08 kn.

 
 
jpsmedia.com for Web Design worldairports.se 2019   terms of use